Time,TemperatureF,DewpointF,PressureIn,WindDirection,WindDirectionDegrees,WindSpeedMPH,WindSpeedGustMPH,Humidity,HourlyPrecipIn,Conditions,Clouds,dailyrainin,SoftwareType,DateUTC
2013-03-27 00:00:00,10.6,7.7,30.18,SE,129,4.0,6.0,88,0.00,,,0.00,VWS V14.01,2013-03-27 05:00:00,
2013-03-27 00:05:00,10.5,7.6,30.18,SE,128,3.0,7.0,88,0.00,,,0.00,VWS V14.01,2013-03-27 05:05:00,
2013-03-27 00:10:00,10.4,7.7,30.18,ESE,120,3.0,7.0,89,0.00,,,0.00,VWS V14.01,2013-03-27 05:10:00,
2013-03-27 00:15:00,10.3,7.6,30.18,ESE,118,1.0,7.0,89,0.00,,,0.00,VWS V14.01,2013-03-27 05:15:00,
2013-03-27 00:20:00,10.3,7.6,30.18,SE,128,2.0,6.0,89,0.00,,,0.00,VWS V14.01,2013-03-27 05:20:00,
2013-03-27 00:25:00,10.2,7.5,30.18,SE,130,3.0,6.0,89,0.00,,,0.00,VWS V14.01,2013-03-27 05:25:00,
2013-03-27 00:30:00,10.1,7.4,30.19,SE,136,2.0,6.0,89,0.00,,,0.00,VWS V14.01,2013-03-27 05:30:00,
2013-03-27 00:35:00,10.0,7.3,30.19,SE,136,1.0,4.0,89,0.00,,,0.00,VWS V14.01,2013-03-27 05:35:00,
2013-03-27 00:40:00,10.0,7.3,30.18,SE,136,0.0,4.0,89,0.00,,,0.00,VWS V14.01,2013-03-27 05:40:00,
2013-03-27 00:45:00,10.0,7.3,30.19,SE,136,2.0,4.0,89,0.00,,,0.00,VWS V14.01,2013-03-27 05:45:00,
2013-03-27 00:50:00,10.0,7.3,30.18,SE,137,0.0,4.0,89,0.00,,,0.00,VWS V14.01,2013-03-27 05:50:00,
2013-03-27 00:55:00,9.9,7.2,30.18,SE,137,1.0,4.0,89,0.00,,,0.00,VWS V14.01,2013-03-27 05:55:00,
2013-03-27 01:00:00,9.6,6.9,30.19,SE,137,2.0,4.0,89,0.00,,,0.00,VWS V14.01,2013-03-27 06:00:00,
2013-03-27 01:05:00,9.5,6.8,30.18,SE,137,1.0,3.0,89,0.00,,,0.00,VWS V14.01,2013-03-27 06:05:00,
2013-03-27 01:10:00,9.4,6.8,30.18,SE,137,1.0,3.0,89,0.00,,,0.00,VWS V14.01,2013-03-27 06:10:00,
2013-03-27 01:15:00,9.1,6.4,30.18,SE,136,3.0,4.0,89,0.00,,,0.00,VWS V14.01,2013-03-27 06:15:00,
2013-03-27 01:20:00,9.0,6.3,30.18,SE,133,2.0,4.0,89,0.00,,,0.00,VWS V14.01,2013-03-27 06:20:00,
2013-03-27 01:25:00,9.0,6.3,30.18,SE,133,2.0,4.0,89,0.00,,,0.00,VWS V14.01,2013-03-27 06:25:00,
2013-03-27 01:30:00,8.8,6.2,30.18,SE,133,0.0,4.0,89,0.00,,,0.00,VWS V14.01,2013-03-27 06:30:00,
2013-03-27 01:35:00,8.5,5.9,30.18,SE,128,1.0,3.0,89,0.00,,,0.00,VWS V14.01,2013-03-27 06:35:00,
2013-03-27 01:40:00,8.8,6.2,30.18,ESE,121,3.0,4.0,89,0.00,,,0.00,VWS V14.01,2013-03-27 06:40:00,
2013-03-27 01:45:00,9.2,6.8,30.18,SE,124,6.0,7.0,90,0.00,,,0.00,VWS V14.01,2013-03-27 06:45:00,
2013-03-27 01:50:00,9.7,7.3,30.18,ESE,119,2.0,7.0,90,0.00,,,0.00,VWS V14.01,2013-03-27 06:50:00,
2013-03-27 01:55:00,9.9,7.5,30.18,SE,124,3.0,7.0,90,0.00,,,0.00,VWS V14.01,2013-03-27 06:55:00,
2013-03-27 02:00:00,9.9,7.2,30.18,ESE,123,1.0,7.0,89,0.00,,,0.00,VWS V14.01,2013-03-27 07:00:00,
2013-03-27 02:05:00,9.7,7.0,30.18,ESE,123,0.0,2.0,89,0.00,,,0.00,VWS V14.01,2013-03-27 07:05:00,
2013-03-27 02:10:00,9.5,6.8,30.18,ESE,122,3.0,4.0,89,0.00,,,0.00,VWS V14.01,2013-03-27 07:10:00,
2013-03-27 02:15:00,9.5,6.8,30.18,ESE,120,3.0,5.0,89,0.00,,,0.00,VWS V14.01,2013-03-27 07:15:00,
2013-03-27 02:20:00,9.6,6.9,30.18,ESE,123,4.0,7.0,89,0.00,,,0.00,VWS V14.01,2013-03-27 07:20:00,
2013-03-27 02:25:00,9.6,6.9,30.18,SE,126,3.0,7.0,89,0.00,,,0.00,VWS V14.01,2013-03-27 07:25:00,
2013-03-27 02:30:00,9.6,6.9,30.18,SE,125,3.0,7.0,89,0.00,,,0.00,VWS V14.01,2013-03-27 07:30:00,
2013-03-27 02:35:00,9.5,6.8,30.18,SE,125,2.0,4.0,89,0.00,,,0.00,VWS V14.01,2013-03-27 07:35:00,
2013-03-27 02:40:00,9.3,6.7,30.18,SE,125,0.0,4.0,89,0.00,,,0.00,VWS V14.01,2013-03-27 07:40:00,
2013-03-27 02:45:00,8.2,5.1,30.18,SE,125,0.0,4.0,87,0.00,,,0.00,VWS V14.01,2013-03-27 07:45:00,
2013-03-27 02:50:00,7.3,4.2,30.18,SE,125,0.0,0.0,87,0.00,,,0.00,VWS V14.01,2013-03-27 07:50:00,
2013-03-27 02:55:00,6.7,3.6,30.17,SE,125,0.0,0.0,87,0.00,,,0.00,VWS V14.01,2013-03-27 07:55:00,
2013-03-27 03:00:00,6.3,3.2,30.17,SE,125,0.0,0.0,87,0.00,,,0.00,VWS V14.01,2013-03-27 08:00:00,
2013-03-27 03:05:00,6.3,3.4,30.17,SE,125,1.0,2.0,88,0.00,,,0.00,VWS V14.01,2013-03-27 08:05:00,
2013-03-27 03:10:00,7.4,5.0,30.16,SE,126,5.0,5.0,90,0.00,,,0.00,VWS V14.01,2013-03-27 08:10:00,
2013-03-27 03:15:00,8.7,6.3,30.17,SE,126,0.0,5.0,90,0.00,,,0.00,VWS V14.01,2013-03-27 08:15:00,
2013-03-27 03:20:00,8.3,5.4,30.17,SE,126,0.0,0.0,88,0.00,,,0.00,VWS V14.01,2013-03-27 08:20:00,
2013-03-27 03:25:00,7.5,4.4,30.17,SE,126,0.0,0.0,87,0.00,,,0.00,VWS V14.01,2013-03-27 08:25:00,
2013-03-27 03:30:00,6.8,3.7,30.16,SE,126,0.0,0.0,87,0.00,,,0.00,VWS V14.01,2013-03-27 08:30:00,
2013-03-27 03:35:00,6.4,3.3,30.16,SE,126,0.0,0.0,87,0.00,,,0.00,VWS V14.01,2013-03-27 08:35:00,
2013-03-27 03:40:00,6.4,3.5,30.16,SE,126,2.0,3.0,88,0.00,,,0.00,VWS V14.01,2013-03-27 08:40:00,
2013-03-27 03:45:00,7.2,4.6,30.16,SE,126,0.0,3.0,89,0.00,,,0.00,VWS V14.01,2013-03-27 08:45:00,
2013-03-27 03:50:00,7.5,5.1,30.16,SE,126,1.0,1.0,90,0.00,,,0.00,VWS V14.01,2013-03-27 08:50:00,
2013-03-27 03:55:00,7.6,5.0,30.16,SE,126,0.0,1.0,89,0.00,,,0.00,VWS V14.01,2013-03-27 08:55:00,
2013-03-27 04:00:00,6.9,4.0,30.16,SE,126,0.0,1.0,88,0.00,,,0.00,VWS V14.01,2013-03-27 09:00:00,
2013-03-27 04:05:00,6.5,3.6,30.16,SE,126,0.0,0.0,88,0.00,,,0.00,VWS V14.01,2013-03-27 09:05:00,
2013-03-27 04:10:00,6.5,3.9,30.16,SE,126,0.0,0.0,89,0.00,,,0.00,VWS V14.01,2013-03-27 09:10:00,
2013-03-27 04:15:00,6.8,4.2,30.16,SE,126,0.0,0.0,89,0.00,,,0.00,VWS V14.01,2013-03-27 09:15:00,
2013-03-27 04:20:00,6.7,4.1,30.16,SE,126,0.0,0.0,89,0.00,,,0.00,VWS V14.01,2013-03-27 09:20:00,
2013-03-27 04:25:00,6.9,4.3,30.16,SE,126,0.0,0.0,89,0.00,,,0.00,VWS V14.01,2013-03-27 09:25:00,
2013-03-27 04:30:00,7.1,4.5,30.16,SE,126,3.0,4.0,89,0.00,,,0.00,VWS V14.01,2013-03-27 09:30:00,
2013-03-27 04:35:00,7.2,4.6,30.16,SE,126,1.0,3.0,89,0.00,,,0.00,VWS V14.01,2013-03-27 09:35:00,
2013-03-27 04:40:00,7.1,4.5,30.16,SE,126,0.0,3.0,89,0.00,,,0.00,VWS V14.01,2013-03-27 09:40:00,
2013-03-27 04:45:00,6.8,3.9,30.16,SE,126,0.0,3.0,88,0.00,,,0.00,VWS V14.01,2013-03-27 09:45:00,
2013-03-27 04:50:00,6.6,3.7,30.16,SE,126,1.0,3.0,88,0.00,,,0.00,VWS V14.01,2013-03-27 09:50:00,
2013-03-27 04:55:00,6.5,3.6,30.16,SE,126,1.0,3.0,88,0.00,,,0.00,VWS V14.01,2013-03-27 09:55:00,
2013-03-27 05:00:00,6.3,3.4,30.16,SE,126,3.0,4.0,88,0.00,,,0.00,VWS V14.01,2013-03-27 10:00:00,
2013-03-27 05:05:00,6.2,3.3,30.16,SE,126,1.0,4.0,88,0.00,,,0.00,VWS V14.01,2013-03-27 10:05:00,
2013-03-27 05:10:00,6.1,3.2,30.16,SE,126,0.0,4.0,88,0.00,,,0.00,VWS V14.01,2013-03-27 10:10:00,
2013-03-27 05:15:00,5.9,3.0,30.16,SE,126,2.0,4.0,88,0.00,,,0.00,VWS V14.01,2013-03-27 10:15:00,
2013-03-27 05:20:00,5.8,3.0,30.16,SE,126,0.0,2.0,88,0.00,,,0.00,VWS V14.01,2013-03-27 10:20:00,
2013-03-27 05:25:00,5.6,2.8,30.16,SE,126,3.0,3.0,88,0.00,,,0.00,VWS V14.01,2013-03-27 10:25:00,
2013-03-27 05:30:00,5.5,2.7,30.16,SE,126,1.0,3.0,88,0.00,,,0.00,VWS V14.01,2013-03-27 10:30:00,
2013-03-27 05:35:00,5.4,2.5,30.16,SE,126,2.0,3.0,88,0.00,,,0.00,VWS V14.01,2013-03-27 10:35:00,
2013-03-27 05:40:00,5.4,2.5,30.16,SE,126,2.0,4.0,88,0.00,,,0.00,VWS V14.01,2013-03-27 10:40:00,
2013-03-27 05:45:00,5.5,2.7,30.16,SE,126,2.0,5.0,88,0.00,,,0.00,VWS V14.01,2013-03-27 10:45:00,
2013-03-27 05:50:00,5.7,3.1,30.16,SE,133,2.0,5.0,89,0.00,,,0.00,VWS V14.01,2013-03-27 10:50:00,
2013-03-27 05:55:00,5.9,3.3,30.16,SE,133,2.0,5.0,89,0.00,,,0.00,VWS V14.01,2013-03-27 10:55:00,
2013-03-27 06:00:00,6.2,3.6,30.16,SE,136,4.0,6.0,89,0.00,,,0.00,VWS V14.01,2013-03-27 11:00:00,
2013-03-27 06:05:00,6.5,3.9,30.16,SE,134,0.0,4.0,89,0.00,,,0.00,VWS V14.01,2013-03-27 11:05:00,
2013-03-27 06:10:00,6.4,3.8,30.16,SE,134,1.0,4.0,89,0.00,,,0.00,VWS V14.01,2013-03-27 11:10:00,
2013-03-27 06:15:00,6.7,4.1,30.16,SE,131,1.0,4.0,89,0.00,,,0.00,VWS V14.01,2013-03-27 11:15:00,
2013-03-27 06:20:00,6.8,4.2,30.16,SE,131,0.0,3.0,89,0.00,,,0.00,VWS V14.01,2013-03-27 11:20:00,
2013-03-27 06:25:00,6.5,3.6,30.17,SE,131,0.0,3.0,88,0.00,,,0.00,VWS V14.01,2013-03-27 11:25:00,
2013-03-27 06:30:00,6.4,3.5,30.17,SE,131,0.0,3.0,88,0.00,,,0.00,VWS V14.01,2013-03-27 11:30:00,
2013-03-27 06:35:00,6.7,4.1,30.17,SE,131,2.0,3.0,89,0.00,,,0.00,VWS V14.01,2013-03-27 11:35:00,
2013-03-27 06:40:00,7.2,4.6,30.17,SE,126,2.0,8.0,89,0.00,,,0.00,VWS V14.01,2013-03-27 11:40:00,
2013-03-27 06:45:00,7.4,4.8,30.17,SE,129,2.0,8.0,89,0.00,,,0.00,VWS V14.01,2013-03-27 11:45:00,
2013-03-27 06:50:00,7.6,5.0,30.17,SE,138,7.0,8.0,89,0.00,,,0.00,VWS V14.01,2013-03-27 11:50:00,
2013-03-27 06:55:00,7.7,5.1,30.17,SE,134,1.0,8.0,89,0.00,,,0.00,VWS V14.01,2013-03-27 11:55:00,
2013-03-27 07:00:00,7.5,4.6,30.17,SE,134,6.0,8.0,88,0.00,,,0.00,VWS V14.01,2013-03-27 12:00:00,
2013-03-27 07:05:00,7.5,4.9,30.17,SE,130,1.0,6.0,89,0.00,,,0.00,VWS V14.01,2013-03-27 12:05:00,
2013-03-27 07:10:00,7.6,5.0,30.17,ESE,123,3.0,6.0,89,0.00,,,0.00,VWS V14.01,2013-03-27 12:10:00,
2013-03-27 07:15:00,7.3,4.4,30.17,ESE,119,1.0,6.0,88,0.00,,,0.00,VWS V14.01,2013-03-27 12:15:00,
2013-03-27 07:20:00,6.9,4.0,30.17,ESE,122,2.0,5.0,88,0.00,,,0.00,VWS V14.01,2013-03-27 12:20:00,
2013-03-27 07:25:00,6.9,4.0,30.17,ESE,120,4.0,5.0,88,0.00,,,0.00,VWS V14.01,2013-03-27 12:25:00,
2013-03-27 07:30:00,7.1,4.5,30.17,ESE,121,2.0,5.0,89,0.00,,,0.00,VWS V14.01,2013-03-27 12:30:00,
2013-03-27 07:35:00,7.3,4.7,30.17,ESE,122,3.0,7.0,89,0.00,,,0.00,VWS V14.01,2013-03-27 12:35:00,
2013-03-27 07:40:00,7.4,4.8,30.17,SE,130,2.0,7.0,89,0.00,,,0.00,VWS V14.01,2013-03-27 12:40:00,
2013-03-27 07:45:00,7.1,4.2,30.17,SE,130,2.0,7.0,88,0.00,,,0.00,VWS V14.01,2013-03-27 12:45:00,
2013-03-27 07:50:00,5.0,1.4,30.17,SE,130,0.0,1.0,85,0.00,,,0.00,VWS V14.01,2013-03-27 12:50:00,
2013-03-27 07:55:00,4.6,1.3,30.17,SE,130,0.0,1.0,86,0.00,,,0.00,VWS V14.01,2013-03-27 12:55:00,
2013-03-27 07:59:00,4.9,2.1,30.17,SE,130,0.0,1.0,88,0.00,,,0.00,VWS V14.01,2013-03-27 12:59:00,
2013-03-27 08:00:00,7.4,4.5,30.17,SE,134,1.0,8.0,88,0.00,,,0.00,VWS V14.01,2013-03-27 13:00:00,
2013-03-27 08:04:00,5.5,2.7,30.17,SE,130,0.0,2.0,88,0.00,,,0.00,VWS V14.01,2013-03-27 13:04:00,
2013-03-27 08:09:00,5.9,3.3,30.17,SE,130,0.0,2.0,89,0.00,,,0.00,VWS V14.01,2013-03-27 13:09:00,
2013-03-27 08:14:00,6.2,3.3,30.17,SE,130,0.0,2.0,88,0.00,,,0.00,VWS V14.01,2013-03-27 13:14:00,
2013-03-27 08:15:00,7.2,4.3,30.17,ESE,119,2.0,6.0,88,0.00,,,0.00,VWS V14.01,2013-03-27 13:15:00,
2013-03-27 08:19:00,6.6,4.0,30.17,SE,130,0.0,0.0,89,0.00,,,0.00,VWS V14.01,2013-03-27 13:19:00,
2013-03-27 08:24:00,7.0,4.4,30.17,SE,130,0.0,0.0,89,0.00,,,0.00,VWS V14.01,2013-03-27 13:24:00,
2013-03-27 08:29:00,7.8,5.4,30.17,SE,130,0.0,2.0,90,0.00,,,0.00,VWS V14.01,2013-03-27 13:29:00,
2013-03-27 08:30:00,7.2,4.6,30.17,ESE,121,2.0,5.0,89,0.00,,,0.00,VWS V14.01,2013-03-27 13:30:00,
2013-03-27 08:34:00,8.4,6.0,30.17,SE,130,0.0,2.0,90,0.00,,,0.00,VWS V14.01,2013-03-27 13:34:00,
2013-03-27 08:39:00,8.3,5.4,30.17,SE,130,0.0,2.0,88,0.00,,,0.00,VWS V14.01,2013-03-27 13:39:00,
2013-03-27 08:44:00,8.2,5.1,30.17,SE,130,0.0,2.0,87,0.00,,,0.00,VWS V14.01,2013-03-27 13:44:00,
2013-03-27 08:45:00,6.7,3.6,30.17,SE,130,1.0,7.0,87,0.00,,,0.00,VWS V14.01,2013-03-27 13:45:00,
2013-03-27 08:49:00,8.0,4.9,30.17,SE,130,0.0,0.0,87,0.00,,,0.00,VWS V14.01,2013-03-27 13:49:00,
2013-03-27 08:54:00,7.4,4.0,30.18,SE,130,0.0,0.0,86,0.00,,,0.00,VWS V14.01,2013-03-27 13:54:00,
2013-03-27 08:59:00,7.4,4.3,30.18,SE,130,0.0,0.0,87,0.00,,,0.00,VWS V14.01,2013-03-27 13:59:00,
2013-03-27 09:00:00,5.0,2.2,30.17,SE,130,0.0,1.0,88,0.00,,,0.00,VWS V14.01,2013-03-27 14:00:00,
2013-03-27 09:04:00,8.2,5.3,30.18,SE,130,0.0,0.0,88,0.00,,,0.00,VWS V14.01,2013-03-27 14:04:00,
2013-03-27 09:09:00,8.9,6.0,30.18,SE,130,0.0,0.0,88,0.00,,,0.00,VWS V14.01,2013-03-27 14:09:00,
2013-03-27 09:14:00,10.3,7.6,30.17,SE,130,0.0,1.0,89,0.00,,,0.00,VWS V14.01,2013-03-27 14:14:00,
2013-03-27 09:15:00,6.3,3.4,30.18,SE,130,0.0,2.0,88,0.00,,,0.00,VWS V14.01,2013-03-27 14:15:00,
2013-03-27 09:19:00,12.0,9.3,30.17,SE,130,0.0,3.0,89,0.00,,,0.00,VWS V14.01,2013-03-27 14:19:00,
2013-03-27 09:24:00,13.5,10.8,30.18,SE,130,0.0,3.0,89,0.00,,,0.00,VWS V14.01,2013-03-27 14:24:00,
2013-03-27 09:29:00,13.9,10.4,30.18,SE,130,0.0,3.0,86,0.00,,,0.00,VWS V14.01,2013-03-27 14:29:00,
2013-03-27 09:30:00,7.9,5.5,30.17,SE,130,0.0,2.0,90,0.00,,,0.00,VWS V14.01,2013-03-27 14:30:00,
2013-03-27 09:34:00,13.6,9.6,30.18,SE,130,0.0,1.0,84,0.00,,,0.00,VWS V14.01,2013-03-27 14:34:00,
2013-03-27 09:39:00,14.4,10.9,30.18,SSE,148,6.0,6.0,86,0.00,,,0.00,VWS V14.01,2013-03-27 14:39:00,
2013-03-27 09:44:00,15.7,12.4,30.18,SE,142,3.0,7.0,87,0.00,,,0.00,VWS V14.01,2013-03-27 14:44:00,
2013-03-27 09:45:00,8.2,5.1,30.17,SE,130,0.0,2.0,87,0.00,,,0.00,VWS V14.01,2013-03-27 14:45:00,
2013-03-27 09:49:00,16.4,12.9,30.18,SSE,155,4.0,7.0,86,0.00,,,0.00,VWS V14.01,2013-03-27 14:49:00,
2013-03-27 09:54:00,16.7,13.2,30.18,SSE,152,4.0,7.0,86,0.00,,,0.00,VWS V14.01,2013-03-27 14:54:00,
2013-03-27 09:59:00,17.0,13.2,30.18,SSE,155,2.0,7.0,85,0.00,,,0.00,VWS V14.01,2013-03-27 14:59:00,
2013-03-27 10:00:00,7.6,4.5,30.18,SE,130,0.0,0.0,87,0.00,,,0.00,VWS V14.01,2013-03-27 15:00:00,
2013-03-27 10:04:00,17.3,13.5,30.18,SSE,149,3.0,6.0,85,0.00,,,0.00,VWS V14.01,2013-03-27 15:04:00,
2013-03-27 10:09:00,17.7,13.9,30.18,ESE,116,5.0,7.0,85,0.00,,,0.00,VWS V14.01,2013-03-27 15:09:00,
2013-03-27 10:14:00,18.3,14.2,30.18,SSE,153,5.0,7.0,84,0.00,,,0.00,VWS V14.01,2013-03-27 15:14:00,
2013-03-27 10:15:00,10.7,8.0,30.18,SE,130,1.0,2.0,89,0.00,,,0.00,VWS V14.01,2013-03-27 15:15:00,
2013-03-27 10:19:00,18.9,14.8,30.18,SSE,153,4.0,4.0,84,0.00,,,0.00,VWS V14.01,2013-03-27 15:19:00,
2013-03-27 10:24:00,19.3,14.6,30.18,SSE,153,5.0,6.0,82,0.00,,,0.00,VWS V14.01,2013-03-27 15:24:00,
2013-03-27 10:29:00,19.5,14.6,30.17,SE,130,4.0,6.0,81,0.00,,,0.00,VWS V14.01,2013-03-27 15:29:00,
2013-03-27 10:30:00,13.9,10.4,30.18,SE,130,0.0,3.0,86,0.00,,,0.00,VWS V14.01,2013-03-27 15:30:00,
2013-03-27 10:34:00,19.6,14.4,30.17,SE,125,5.0,8.0,80,0.00,,,0.00,VWS V14.01,2013-03-27 15:34:00,
2013-03-27 10:39:00,19.5,14.3,30.17,SE,145,7.0,8.0,80,0.00,,,0.00,VWS V14.01,2013-03-27 15:39:00,
2013-03-27 10:44:00,19.7,14.7,30.17,SSE,161,7.0,10.0,81,0.00,,,0.00,VWS V14.01,2013-03-27 15:44:00,
2013-03-27 10:45:00,15.9,12.6,30.18,SE,143,3.0,7.0,87,0.00,,,0.00,VWS V14.01,2013-03-27 15:45:00,
2013-03-27 10:49:00,20.1,15.1,30.17,SSE,148,4.0,8.0,81,0.00,,,0.00,VWS V14.01,2013-03-27 15:49:00,
2013-03-27 10:54:00,20.2,14.9,30.17,SSE,163,7.0,10.0,80,0.00,,,0.00,VWS V14.01,2013-03-27 15:54:00,
2013-03-27 10:59:00,19.9,14.6,30.18,SSE,150,7.0,10.0,80,0.00,,,0.00,VWS V14.01,2013-03-27 15:59:00,
2013-03-27 11:00:00,17.1,13.3,30.18,SSE,156,2.0,7.0,85,0.00,,,0.00,VWS V14.01,2013-03-27 16:00:00,
2013-03-27 11:04:00,20.3,15.3,30.18,SSE,150,3.0,8.0,81,0.00,,,0.00,VWS V14.01,2013-03-27 16:04:00,
2013-03-27 11:09:00,20.9,15.6,30.18,SSE,150,5.0,8.0,80,0.00,,,0.00,VWS V14.01,2013-03-27 16:09:00,
2013-03-27 11:14:00,21.4,16.1,30.17,SE,126,5.0,8.0,80,0.00,,,0.00,VWS V14.01,2013-03-27 16:14:00,
2013-03-27 11:15:00,18.4,14.3,30.18,SSE,153,2.0,7.0,84,0.00,,,0.00,VWS V14.01,2013-03-27 16:15:00,
2013-03-27 11:19:00,21.9,16.3,30.17,SSE,159,4.0,9.0,79,0.00,,,0.00,VWS V14.01,2013-03-27 16:19:00,
2013-03-27 11:24:00,22.4,16.8,30.18,ESE,119,8.0,9.0,79,0.00,,,0.00,VWS V14.01,2013-03-27 16:24:00,
2013-03-27 11:29:00,22.7,17.1,30.18,SE,140,3.0,9.0,79,0.00,,,0.00,VWS V14.01,2013-03-27 16:29:00,
2013-03-27 11:30:00,19.5,14.6,30.17,SE,130,6.0,6.0,81,0.00,,,0.00,VWS V14.01,2013-03-27 16:30:00,
2013-03-27 11:34:00,23.3,17.7,30.18,SE,138,4.0,8.0,79,0.00,,,0.00,VWS V14.01,2013-03-27 16:34:00,
2013-03-27 11:39:00,24.0,18.1,30.18,SE,142,8.0,8.0,78,0.00,,,0.00,VWS V14.01,2013-03-27 16:39:00,
2013-03-27 11:44:00,24.1,18.2,30.18,SE,131,4.0,8.0,78,0.00,,,0.00,VWS V14.01,2013-03-27 16:44:00,
2013-03-27 11:45:00,19.7,14.7,30.17,SSE,161,4.0,10.0,81,0.00,,,0.00,VWS V14.01,2013-03-27 16:45:00,
2013-03-27 11:49:00,24.7,18.4,30.18,SE,142,6.0,7.0,77,0.00,,,0.00,VWS V14.01,2013-03-27 16:49:00,
2013-03-27 11:54:00,24.9,18.6,30.18,SE,133,5.0,8.0,77,0.00,,,0.00,VWS V14.01,2013-03-27 16:54:00,
2013-03-27 11:59:00,25.0,18.7,30.18,SE,142,5.0,9.0,77,0.00,,,0.00,VWS V14.01,2013-03-27 16:59:00,
2013-03-27 12:00:00,19.9,14.6,30.18,SE,135,6.0,10.0,80,0.00,,,0.00,VWS V14.01,2013-03-27 17:00:00,
2013-03-27 12:04:00,25.3,19.0,30.18,ESE,116,7.0,8.0,77,0.00,,,0.00,VWS V14.01,2013-03-27 17:04:00,
2013-03-27 12:09:00,25.8,19.5,30.18,East,101,7.0,8.0,77,0.00,,,0.00,VWS V14.01,2013-03-27 17:09:00,
2013-03-27 12:14:00,25.9,19.6,30.18,SE,125,2.0,8.0,77,0.00,,,0.00,VWS V14.01,2013-03-27 17:14:00,
2013-03-27 12:15:00,21.6,16.3,30.17,SE,128,7.0,8.0,80,0.00,,,0.00,VWS V14.01,2013-03-27 17:15:00,
2013-03-27 12:19:00,26.1,19.8,30.18,ESE,123,4.0,10.0,77,0.00,,,0.00,VWS V14.01,2013-03-27 17:19:00,
2013-03-27 12:24:00,26.4,19.8,30.18,East,99,3.0,10.0,76,0.00,,,0.00,VWS V14.01,2013-03-27 17:24:00,
2013-03-27 12:29:00,26.4,19.8,30.18,East,93,1.0,10.0,76,0.00,,,0.00,VWS V14.01,2013-03-27 17:29:00,
2013-03-27 12:30:00,22.7,17.1,30.18,ESE,115,3.0,9.0,79,0.00,,,0.00,VWS V14.01,2013-03-27 17:30:00,
2013-03-27 12:34:00,26.8,20.2,30.18,East,101,3.0,7.0,76,0.00,,,0.00,VWS V14.01,2013-03-27 17:34:00,
2013-03-27 12:39:00,27.1,20.5,30.18,East,87,5.0,8.0,76,0.00,,,0.00,VWS V14.01,2013-03-27 17:39:00,
2013-03-27 12:44:00,27.2,20.2,30.18,East,99,6.0,8.0,75,0.00,,,0.00,VWS V14.01,2013-03-27 17:44:00,
2013-03-27 12:45:00,24.2,18.2,30.18,SE,128,2.0,8.0,78,0.00,,,0.00,VWS V14.01,2013-03-27 17:45:00,
2013-03-27 12:49:00,27.3,20.6,30.18,ESE,105,4.0,7.0,76,0.00,,,0.00,VWS V14.01,2013-03-27 17:49:00,
2013-03-27 12:54:00,27.6,20.6,30.18,ESE,115,8.0,8.0,75,0.00,,,0.00,VWS V14.01,2013-03-27 17:54:00,
2013-03-27 12:59:00,27.5,20.5,30.18,East,92,7.0,9.0,75,0.00,,,0.00,VWS V14.01,2013-03-27 17:59:00,
2013-03-27 13:00:00,25.0,18.7,30.18,SSE,149,5.0,9.0,77,0.00,,,0.00,VWS V14.01,2013-03-27 18:00:00,
2013-03-27 13:04:00,27.3,20.6,30.18,East,101,3.0,9.0,76,0.00,,,0.00,VWS V14.01,2013-03-27 18:04:00,
2013-03-27 13:09:00,27.6,20.6,30.18,SE,132,7.0,12.0,75,0.00,,,0.00,VWS V14.01,2013-03-27 18:09:00,
2013-03-27 13:14:00,27.8,21.1,30.17,ESE,122,5.0,12.0,76,0.00,,,0.00,VWS V14.01,2013-03-27 18:14:00,
2013-03-27 13:15:00,26.1,19.8,30.18,SE,141,10.0,10.0,77,0.00,,,0.00,VWS V14.01,2013-03-27 18:15:00,
2013-03-27 13:19:00,28.3,21.3,30.17,SSE,161,8.0,9.0,75,0.00,,,0.00,VWS V14.01,2013-03-27 18:19:00,
2013-03-27 13:24:00,28.5,21.5,30.18,SE,136,9.0,9.0,75,0.00,,,0.00,VWS V14.01,2013-03-27 18:24:00,
2013-03-27 13:29:00,28.6,21.3,30.17,ESE,117,3.0,9.0,74,0.00,,,0.00,VWS V14.01,2013-03-27 18:29:00,
2013-03-27 13:30:00,26.5,19.9,30.18,East,93,5.0,10.0,76,0.00,,,0.00,VWS V14.01,2013-03-27 18:30:00,
2013-03-27 13:34:00,29.0,21.7,30.18,ESE,118,4.0,8.0,74,0.00,,,0.00,VWS V14.01,2013-03-27 18:34:00,
2013-03-27 13:39:00,29.2,21.9,30.18,SSE,157,4.0,9.0,74,0.00,,,0.00,VWS V14.01,2013-03-27 18:39:00,
2013-03-27 13:44:00,29.2,21.9,30.18,SE,132,4.0,9.0,74,0.00,,,0.00,VWS V14.01,2013-03-27 18:44:00,
2013-03-27 13:45:00,27.1,20.1,30.18,ESE,119,3.0,8.0,75,0.00,,,0.00,VWS V14.01,2013-03-27 18:45:00,
2013-03-27 13:49:00,29.4,21.7,30.18,ESE,121,3.0,4.0,73,0.00,,,0.00,VWS V14.01,2013-03-27 18:49:00,
2013-03-27 13:54:00,29.6,21.6,30.18,East,86,5.0,7.0,72,0.00,,,0.00,VWS V14.01,2013-03-27 18:54:00,
2013-03-27 13:59:00,29.4,21.4,30.18,SE,130,5.0,9.0,72,0.00,,,0.00,VWS V14.01,2013-03-27 18:59:00,
2013-03-27 14:00:00,27.4,20.4,30.18,East,83,5.0,9.0,75,0.00,,,0.00,VWS V14.01,2013-03-27 19:00:00,
2013-03-27 14:04:00,29.4,21.4,30.18,East,93,3.0,7.0,72,0.00,,,0.00,VWS V14.01,2013-03-27 19:04:00,
2013-03-27 14:09:00,29.6,21.9,30.17,East,95,2.0,7.0,73,0.00,,,0.00,VWS V14.01,2013-03-27 19:09:00,
2013-03-27 14:14:00,29.6,21.6,30.17,ESE,111,1.0,7.0,72,0.00,,,0.00,VWS V14.01,2013-03-27 19:14:00,
2013-03-27 14:15:00,28.0,21.3,30.18,SE,135,6.0,12.0,76,0.00,,,0.00,VWS V14.01,2013-03-27 19:15:00,
2013-03-27 14:19:00,29.5,21.5,30.17,East,101,1.0,7.0,72,0.00,,,0.00,VWS V14.01,2013-03-27 19:19:00,
2013-03-27 14:24:00,29.3,21.3,30.17,ESE,118,5.0,7.0,72,0.00,,,0.00,VWS V14.01,2013-03-27 19:24:00,
2013-03-27 14:29:00,29.4,21.7,30.17,ESE,106,2.0,7.0,73,0.00,,,0.00,VWS V14.01,2013-03-27 19:29:00,
2013-03-27 14:30:00,28.7,21.7,30.18,East,98,3.0,9.0,75,0.00,,,0.00,VWS V14.01,2013-03-27 19:30:00,
2013-03-27 14:34:00,29.3,21.3,30.17,ESE,103,5.0,7.0,72,0.00,,,0.00,VWS V14.01,2013-03-27 19:34:00,
2013-03-27 14:39:00,29.2,21.5,30.17,ESE,109,4.0,7.0,73,0.00,,,0.00,VWS V14.01,2013-03-27 19:39:00,
2013-03-27 14:44:00,29.0,21.7,30.17,SE,140,5.0,10.0,74,0.00,,,0.00,VWS V14.01,2013-03-27 19:44:00,
2013-03-27 14:45:00,29.3,22.0,30.18,ESE,119,3.0,9.0,74,0.00,,,0.00,VWS V14.01,2013-03-27 19:45:00,
2013-03-27 14:49:00,28.7,21.4,30.17,East,94,3.0,9.0,74,0.00,,,0.00,VWS V14.01,2013-03-27 19:49:00,
2013-03-27 14:54:00,28.4,21.4,30.17,East,99,6.0,9.0,75,0.00,,,0.00,VWS V14.01,2013-03-27 19:54:00,
2013-03-27 14:59:00,28.4,21.1,30.17,ESE,117,4.0,9.0,74,0.00,,,0.00,VWS V14.01,2013-03-27 19:59:00,
2013-03-27 15:00:00,29.4,21.7,30.18,ESE,121,3.0,9.0,73,0.00,,,0.00,VWS V14.01,2013-03-27 20:00:00,
2013-03-27 15:04:00,28.5,21.2,30.17,East,96,5.0,8.0,74,0.00,,,0.00,VWS V14.01,2013-03-27 20:04:00,
2013-03-27 15:09:00,28.5,21.2,30.17,East,86,7.0,8.0,74,0.00,,,0.00,VWS V14.01,2013-03-27 20:09:00,
2013-03-27 15:14:00,28.5,21.2,30.16,East,85,3.0,8.0,74,0.00,,,0.00,VWS V14.01,2013-03-27 20:14:00,
2013-03-27 15:15:00,29.5,21.5,30.18,East,94,3.0,7.0,72,0.00,,,0.00,VWS V14.01,2013-03-27 20:15:00,
2013-03-27 15:19:00,28.8,21.8,30.17,East,92,2.0,7.0,75,0.00,,,0.00,VWS V14.01,2013-03-27 20:19:00,
2013-03-27 15:24:00,28.9,21.9,30.16,ENE,78,2.0,8.0,75,0.00,,,0.00,VWS V14.01,2013-03-27 20:24:00,
2013-03-27 15:29:00,28.9,21.6,30.16,ENE,72,4.0,8.0,74,0.00,,,0.00,VWS V14.01,2013-03-27 20:29:00,
2013-03-27 15:30:00,29.4,21.7,30.17,ESE,103,2.0,7.0,73,0.00,,,0.00,VWS V14.01,2013-03-27 20:30:00,
2013-03-27 15:34:00,29.0,21.7,30.16,East,84,3.0,7.0,74,0.00,,,0.00,VWS V14.01,2013-03-27 20:34:00,
2013-03-27 15:39:00,28.8,21.8,30.16,ENE,75,3.0,8.0,75,0.00,,,0.00,VWS V14.01,2013-03-27 20:39:00,
2013-03-27 15:44:00,28.7,21.7,30.16,East,80,5.0,9.0,75,0.00,,,0.00,VWS V14.01,2013-03-27 20:44:00,
2013-03-27 15:45:00,29.0,21.4,30.17,ESE,123,4.0,10.0,73,0.00,,,0.00,VWS V14.01,2013-03-27 20:45:00,
2013-03-27 15:49:00,28.7,21.7,30.16,East,96,2.0,7.0,75,0.00,,,0.00,VWS V14.01,2013-03-27 20:49:00,
2013-03-27 15:54:00,28.5,21.5,30.16,East,84,3.0,8.0,75,0.00,,,0.00,VWS V14.01,2013-03-27 20:54:00,
2013-03-27 15:59:00,28.4,21.7,30.16,SE,126,6.0,9.0,76,0.00,,,0.00,VWS V14.01,2013-03-27 20:59:00,
2013-03-27 16:00:00,28.5,21.5,30.17,ESE,111,3.0,9.0,75,0.00,,,0.00,VWS V14.01,2013-03-27 21:00:00,
2013-03-27 16:04:00,28.3,21.6,30.16,East,97,2.0,7.0,76,0.00,,,0.00,VWS V14.01,2013-03-27 21:04:00,
2013-03-27 16:09:00,28.3,21.6,30.16,ENE,74,4.0,8.0,76,0.00,,,0.00,VWS V14.01,2013-03-27 21:09:00,
2013-03-27 16:14:00,27.9,21.2,30.16,ENE,78,4.0,15.0,76,0.00,,,0.00,VWS V14.01,2013-03-27 21:14:00,
2013-03-27 16:15:00,28.6,21.6,30.16,ENE,67,5.0,8.0,75,0.00,,,0.00,VWS V14.01,2013-03-27 21:15:00,
2013-03-27 16:19:00,27.8,21.1,30.16,East,87,7.0,10.0,76,0.00,,,0.00,VWS V14.01,2013-03-27 21:19:00,
2013-03-27 16:24:00,27.9,21.5,30.15,ESE,109,4.0,10.0,77,0.00,,,0.00,VWS V14.01,2013-03-27 21:24:00,
2013-03-27 16:29:00,27.7,21.0,30.15,ESE,122,5.0,10.0,76,0.00,,,0.00,VWS V14.01,2013-03-27 21:29:00,
2013-03-27 16:30:00,28.9,21.6,30.16,ENE,71,3.0,8.0,74,0.00,,,0.00,VWS V14.01,2013-03-27 21:30:00,
2013-03-27 16:34:00,27.6,21.2,30.15,ESE,115,7.0,9.0,77,0.00,,,0.00,VWS V14.01,2013-03-27 21:34:00,
2013-03-27 16:39:00,27.4,21.1,30.15,ESE,108,8.0,11.0,77,0.00,,,0.00,VWS V14.01,2013-03-27 21:39:00,
2013-03-27 16:44:00,27.4,21.4,30.16,East,91,9.0,12.0,78,0.00,,,0.00,VWS V14.01,2013-03-27 21:44:00,
2013-03-27 16:45:00,28.7,21.7,30.16,East,84,5.0,9.0,75,0.00,,,0.00,VWS V14.01,2013-03-27 21:45:00,
2013-03-27 16:49:00,27.2,20.9,30.16,ENE,71,11.0,15.0,77,0.00,,,0.00,VWS V14.01,2013-03-27 21:49:00,
2013-03-27 16:54:00,26.8,20.8,30.16,East,81,2.0,16.0,78,0.00,,,0.00,VWS V14.01,2013-03-27 21:54:00,
2013-03-27 16:59:00,26.6,20.9,30.16,East,96,10.0,16.0,79,0.00,,,0.00,VWS V14.01,2013-03-27 21:59:00,
2013-03-27 17:00:00,28.3,21.6,30.16,ESE,103,4.0,9.0,76,0.00,,,0.00,VWS V14.01,2013-03-27 22:00:00,
2013-03-27 17:04:00,26.8,20.8,30.16,ENE,73,4.0,11.0,78,0.00,,,0.00,VWS V14.01,2013-03-27 22:04:00,
2013-03-27 17:09:00,26.7,20.7,30.16,ESE,104,4.0,11.0,78,0.00,,,0.00,VWS V14.01,2013-03-27 22:09:00,
2013-03-27 17:14:00,26.7,21.0,30.16,ENE,74,4.0,11.0,79,0.00,,,0.00,VWS V14.01,2013-03-27 22:14:00,
2013-03-27 17:15:00,27.9,21.5,30.15,East,98,6.0,15.0,77,0.00,,,0.00,VWS V14.01,2013-03-27 22:15:00,
2013-03-27 17:19:00,26.9,21.2,30.16,ENE,68,1.0,9.0,79,0.00,,,0.00,VWS V14.01,2013-03-27 22:19:00,
2013-03-27 17:24:00,27.0,21.3,30.16,East,88,5.0,9.0,79,0.00,,,0.00,VWS V14.01,2013-03-27 22:24:00,
2013-03-27 17:29:00,26.9,21.2,30.16,East,84,5.0,9.0,79,0.00,,,0.00,VWS V14.01,2013-03-27 22:29:00,
2013-03-27 17:30:00,27.7,21.0,30.15,ESE,121,3.0,10.0,76,0.00,,,0.00,VWS V14.01,2013-03-27 22:30:00,
2013-03-27 17:34:00,26.9,21.2,30.16,East,82,2.0,6.0,79,0.00,,,0.00,VWS V14.01,2013-03-27 22:34:00,
2013-03-27 17:39:00,26.9,21.2,30.16,East,87,7.0,9.0,79,0.00,,,0.00,VWS V14.01,2013-03-27 22:39:00,
2013-03-27 17:44:00,26.9,21.2,30.16,ENE,74,9.0,13.0,79,0.00,,,0.00,VWS V14.01,2013-03-27 22:44:00,
2013-03-27 17:45:00,27.4,21.1,30.16,East,91,5.0,12.0,77,0.00,,,0.00,VWS V14.01,2013-03-27 22:45:00,
2013-03-27 17:49:00,27.0,21.3,30.16,East,86,6.0,13.0,79,0.00,,,0.00,VWS V14.01,2013-03-27 22:49:00,
2013-03-27 17:54:00,26.9,21.2,30.16,ESE,116,11.0,14.0,79,0.00,,,0.00,VWS V14.01,2013-03-27 22:54:00,
2013-03-27 17:59:00,26.6,20.9,30.16,East,82,7.0,15.0,79,0.00,,,0.00,VWS V14.01,2013-03-27 22:59:00,
2013-03-27 18:00:00,26.7,21.0,30.16,East,82,11.0,16.0,79,0.00,,,0.00,VWS V14.01,2013-03-27 23:00:00,
2013-03-27 18:04:00,26.6,21.2,30.16,East,79,6.0,13.0,80,0.00,,,0.00,VWS V14.01,2013-03-27 23:04:00,
2013-03-27 18:09:00,26.5,21.1,30.15,East,86,5.0,15.0,80,0.00,,,0.00,VWS V14.01,2013-03-27 23:09:00,
2013-03-27 18:14:00,26.5,21.1,30.15,East,94,0.0,15.0,80,0.00,,,0.00,VWS V14.01,2013-03-27 23:14:00,
2013-03-27 18:15:00,26.8,21.1,30.16,East,81,5.0,11.0,79,0.00,,,0.00,VWS V14.01,2013-03-27 23:15:00,
2013-03-27 18:19:00,26.4,21.0,30.15,ESE,109,3.0,11.0,80,0.00,,,0.00,VWS V14.01,2013-03-27 23:19:00,
2013-03-27 18:24:00,26.5,21.1,30.15,ESE,115,5.0,11.0,80,0.00,,,0.00,VWS V14.01,2013-03-27 23:24:00,
2013-03-27 18:29:00,26.4,21.3,30.15,East,88,9.0,13.0,81,0.00,,,0.00,VWS V14.01,2013-03-27 23:29:00,
2013-03-27 18:30:00,26.9,21.2,30.16,East,82,2.0,9.0,79,0.00,,,0.00,VWS V14.01,2013-03-27 23:30:00,
2013-03-27 18:34:00,26.3,21.2,30.15,ESE,104,4.0,11.0,81,0.00,,,0.00,VWS V14.01,2013-03-27 23:34:00,
2013-03-27 18:39:00,26.2,21.1,30.16,ESE,121,3.0,11.0,81,0.00,,,0.00,VWS V14.01,2013-03-27 23:39:00,
2013-03-27 18:44:00,26.3,21.2,30.16,ESE,103,4.0,11.0,81,0.00,,,0.00,VWS V14.01,2013-03-27 23:44:00,
2013-03-27 18:45:00,26.9,21.2,30.16,ENE,78,7.0,13.0,79,0.00,,,0.00,VWS V14.01,2013-03-27 23:45:00,
2013-03-27 18:49:00,26.1,21.0,30.16,ESE,123,4.0,9.0,81,0.00,,,0.00,VWS V14.01,2013-03-27 23:49:00,
2013-03-27 18:54:00,26.2,21.4,30.16,SE,132,4.0,9.0,82,0.00,,,0.00,VWS V14.01,2013-03-27 23:54:00,
2013-03-27 18:59:00,26.2,21.1,30.16,ESE,114,4.0,9.0,81,0.00,,,0.00,VWS V14.01,2013-03-27 23:59:00,
2013-03-27 19:00:00,26.6,20.9,30.15,East,83,3.0,16.0,79,0.00,,,0.00,VWS V14.01,2013-03-28 00:00:00,
2013-03-27 19:04:00,25.9,20.8,30.16,ESE,104,5.0,8.0,81,0.00,,,0.00,VWS V14.01,2013-03-28 00:04:00,
2013-03-27 19:09:00,25.7,20.6,30.16,ESE,105,4.0,8.0,81,0.00,,,0.00,VWS V14.01,2013-03-28 00:09:00,
2013-03-27 19:14:00,25.7,20.9,30.16,ESE,115,0.0,8.0,82,0.00,,,0.00,VWS V14.01,2013-03-28 00:14:00,
2013-03-27 19:15:00,26.5,21.1,30.15,ESE,102,4.0,15.0,80,0.00,,,0.00,VWS V14.01,2013-03-28 00:15:00,
2013-03-27 19:19:00,25.4,20.6,30.16,ESE,113,7.0,9.0,82,0.00,,,0.00,VWS V14.01,2013-03-28 00:19:00,
2013-03-27 19:24:00,25.2,20.4,30.16,ESE,103,1.0,9.0,82,0.00,,,0.00,VWS V14.01,2013-03-28 00:24:00,
2013-03-27 19:29:00,24.9,20.1,30.16,ESE,111,4.0,9.0,82,0.00,,,0.00,VWS V14.01,2013-03-28 00:29:00,
2013-03-27 19:30:00,26.4,21.3,30.15,East,89,7.0,13.0,81,0.00,,,0.00,VWS V14.01,2013-03-28 00:30:00,
2013-03-27 19:34:00,24.7,20.2,30.16,ESE,111,2.0,8.0,83,0.00,,,0.00,VWS V14.01,2013-03-28 00:34:00,
2013-03-27 19:39:00,24.6,20.1,30.16,ESE,111,2.0,8.0,83,0.00,,,0.00,VWS V14.01,2013-03-28 00:39:00,
2013-03-27 19:44:00,24.4,19.9,30.16,East,87,2.0,8.0,83,0.00,,,0.00,VWS V14.01,2013-03-28 00:44:00,
2013-03-27 19:45:00,26.2,21.1,30.15,East,93,5.0,11.0,81,0.00,,,0.00,VWS V14.01,2013-03-28 00:45:00,
2013-03-27 19:49:00,24.2,20.0,30.16,East,97,3.0,6.0,84,0.00,,,0.00,VWS V14.01,2013-03-28 00:49:00,
2013-03-27 19:54:00,24.0,19.8,30.15,ESE,112,5.0,9.0,84,0.00,,,0.00,VWS V14.01,2013-03-28 00:54:00,
2013-03-27 19:59:00,23.7,19.5,30.15,ESE,113,3.0,9.0,84,0.00,,,0.00,VWS V14.01,2013-03-28 00:59:00,
2013-03-27 20:00:00,26.1,21.0,30.16,ESE,113,5.0,9.0,81,0.00,,,0.00,VWS V14.01,2013-03-28 01:00:00,
2013-03-27 20:04:00,23.5,19.6,30.16,ESE,111,4.0,8.0,85,0.00,,,0.00,VWS V14.01,2013-03-28 01:04:00,
2013-03-27 20:09:00,23.3,19.4,30.15,ESE,107,3.0,9.0,85,0.00,,,0.00,VWS V14.01,2013-03-28 01:09:00,
2013-03-27 20:14:00,23.0,19.1,30.16,ESE,109,7.0,9.0,85,0.00,,,0.00,VWS V14.01,2013-03-28 01:14:00,
2013-03-27 20:15:00,25.7,20.9,30.16,ESE,115,2.0,8.0,82,0.00,,,0.00,VWS V14.01,2013-03-28 01:15:00,
2013-03-27 20:19:00,22.7,19.1,30.16,ESE,114,4.0,8.0,86,0.00,,,0.00,VWS V14.01,2013-03-28 01:19:00,
2013-03-27 20:24:00,22.5,18.9,30.16,ESE,111,2.0,8.0,86,0.00,,,0.00,VWS V14.01,2013-03-28 01:24:00,
2013-03-27 20:29:00,22.4,18.8,30.16,ESE,110,2.0,8.0,86,0.00,,,0.00,VWS V14.01,2013-03-28 01:29:00,
2013-03-27 20:30:00,24.9,20.4,30.16,ESE,115,4.0,9.0,83,0.00,,,0.00,VWS V14.01,2013-03-28 01:30:00,
2013-03-27 20:34:00,22.2,18.9,30.16,ESE,107,2.0,5.0,87,0.00,,,0.00,VWS V14.01,2013-03-28 01:34:00,
2013-03-27 20:39:00,22.0,18.6,30.15,ESE,109,4.0,7.0,87,0.00,,,0.00,VWS V14.01,2013-03-28 01:39:00,
2013-03-27 20:44:00,21.9,18.5,30.15,ESE,117,2.0,7.0,87,0.00,,,0.00,VWS V14.01,2013-03-28 01:44:00,
2013-03-27 20:45:00,24.3,19.8,30.16,East,95,0.0,8.0,83,0.00,,,0.00,VWS V14.01,2013-03-28 01:45:00,
2013-03-27 20:49:00,21.8,18.5,30.15,ESE,114,4.0,8.0,87,0.00,,,0.00,VWS V14.01,2013-03-28 01:49:00,
2013-03-27 20:53:00,21.7,18.4,30.15,ESE,110,2.0,8.0,87,0.00,,,0.00,VWS V14.01,2013-03-28 01:53:00,
2013-03-27 20:58:00,21.7,18.4,30.15,ESE,111,5.0,8.0,87,0.00,,,0.00,VWS V14.01,2013-03-28 01:58:00,
2013-03-27 21:00:00,23.6,19.7,30.15,SE,129,5.0,9.0,85,0.00,,,0.00,VWS V14.01,2013-03-28 02:00:00,
2013-03-27 21:03:00,21.5,18.4,30.15,ESE,111,4.0,5.0,88,0.00,,,0.00,VWS V14.01,2013-03-28 02:03:00,
2013-03-27 21:08:00,21.4,18.3,30.15,ESE,108,2.0,7.0,88,0.00,,,0.00,VWS V14.01,2013-03-28 02:08:00,
2013-03-27 21:13:00,21.2,18.1,30.15,ESE,108,1.0,8.0,88,0.00,,,0.00,VWS V14.01,2013-03-28 02:13:00,
2013-03-27 21:15:00,22.9,19.0,30.15,ESE,110,4.0,9.0,85,0.00,,,0.00,VWS V14.01,2013-03-28 02:15:00,
2013-03-27 21:18:00,21.1,18.0,30.15,ESE,109,5.0,5.0,88,0.00,,,0.00,VWS V14.01,2013-03-28 02:18:00,
2013-03-27 21:24:00,20.9,17.8,30.16,ESE,103,2.0,7.0,88,0.00,,,0.00,VWS V14.01,2013-03-28 02:24:00,
2013-03-27 21:29:00,20.8,17.7,30.16,ESE,108,3.0,7.0,88,0.00,,,0.00,VWS V14.01,2013-03-28 02:29:00,
2013-03-27 21:30:00,22.3,18.7,30.16,ESE,111,3.0,8.0,86,0.00,,,0.00,VWS V14.01,2013-03-28 02:30:00,
2013-03-27 21:34:00,20.6,17.8,30.16,ESE,107,0.0,4.0,89,0.00,,,0.00,VWS V14.01,2013-03-28 02:34:00,
2013-03-27 21:39:00,20.4,17.3,30.16,ESE,105,3.0,5.0,88,0.00,,,0.00,VWS V14.01,2013-03-28 02:39:00,
2013-03-27 21:43:00,20.3,17.5,30.16,ESE,108,2.0,8.0,89,0.00,,,0.00,VWS V14.01,2013-03-28 02:43:00,
2013-03-27 21:45:00,21.9,18.5,30.15,ESE,117,1.0,7.0,87,0.00,,,0.00,VWS V14.01,2013-03-28 02:45:00,
2013-03-27 21:49:00,20.2,17.4,30.16,ESE,108,2.0,5.0,89,0.00,,,0.00,VWS V14.01,2013-03-28 02:49:00,
2013-03-27 21:53:00,20.0,17.2,30.16,ESE,108,0.0,5.0,89,0.00,,,0.00,VWS V14.01,2013-03-28 02:53:00,
2013-03-27 21:58:00,19.9,17.1,30.16,ESE,105,4.0,5.0,89,0.00,,,0.00,VWS V14.01,2013-03-28 02:58:00,
2013-03-27 22:00:00,21.7,18.4,30.15,ESE,111,5.0,8.0,87,0.00,,,0.00,VWS V14.01,2013-03-28 03:00:00,
2013-03-27 22:03:00,19.8,17.0,30.16,ESE,103,0.0,1.0,89,0.00,,,0.00,VWS V14.01,2013-03-28 03:03:00,
2013-03-27 22:08:00,19.5,16.7,30.16,ESE,103,0.0,3.0,89,0.00,,,0.00,VWS V14.01,2013-03-28 03:08:00,
2013-03-27 22:13:00,19.3,16.5,30.16,ESE,103,2.0,3.0,89,0.00,,,0.00,VWS V14.01,2013-03-28 03:13:00,
2013-03-27 22:15:00,21.1,18.0,30.15,ESE,117,5.0,8.0,88,0.00,,,0.00,VWS V14.01,2013-03-28 03:15:00,
2013-03-27 22:18:00,19.2,16.7,30.16,ESE,105,2.0,4.0,90,0.00,,,0.00,VWS V14.01,2013-03-28 03:18:00,
2013-03-27 22:23:00,19.2,16.7,30.16,ESE,105,1.0,4.0,90,0.00,,,0.00,VWS V14.01,2013-03-28 03:23:00,
2013-03-27 22:28:00,19.1,16.6,30.16,ESE,105,0.0,4.0,90,0.00,,,0.00,VWS V14.01,2013-03-28 03:28:00,
2013-03-27 22:30:00,20.7,17.6,30.16,ESE,108,2.0,7.0,88,0.00,,,0.00,VWS V14.01,2013-03-28 03:30:00,
2013-03-27 22:33:00,19.0,16.5,30.16,ESE,105,0.0,0.0,90,0.00,,,0.00,VWS V14.01,2013-03-28 03:33:00,
2013-03-27 22:38:00,18.9,16.4,30.16,ESE,105,0.0,0.0,90,0.00,,,0.00,VWS V14.01,2013-03-28 03:38:00,
2013-03-27 22:43:00,18.8,16.3,30.16,ESE,105,0.0,0.0,90,0.00,,,0.00,VWS V14.01,2013-03-28 03:43:00,
2013-03-27 22:45:00,20.3,17.5,30.16,ESE,108,0.0,8.0,89,0.00,,,0.00,VWS V14.01,2013-03-28 03:45:00,
2013-03-27 22:48:00,18.9,16.6,30.16,ESE,109,4.0,4.0,91,0.00,,,0.00,VWS V14.01,2013-03-28 03:48:00,
2013-03-27 22:53:00,18.9,16.6,30.16,ESE,117,3.0,5.0,91,0.00,,,0.00,VWS V14.01,2013-03-28 03:53:00,
2013-03-27 22:58:00,18.8,16.3,30.16,ESE,117,0.0,5.0,90,0.00,,,0.00,VWS V14.01,2013-03-28 03:58:00,
2013-03-27 23:00:00,18.8,16.3,30.16,ESE,117,0.0,5.0,90,0.00,,,0.00,VWS V14.01,2013-03-28 04:00:00,
2013-03-27 23:05:00,18.5,16.0,30.16,ESE,117,0.0,0.0,90,0.00,,,0.00,VWS V14.01,2013-03-28 04:05:00,
2013-03-27 23:10:00,18.0,15.5,30.16,ESE,117,0.0,0.0,90,0.00,,,0.00,VWS V14.01,2013-03-28 04:10:00,
2013-03-27 23:15:00,17.5,15.0,30.16,ESE,117,0.0,0.0,90,0.00,,,0.00,VWS V14.01,2013-03-28 04:15:00,
2013-03-27 23:20:00,17.0,14.2,30.16,ESE,117,0.0,0.0,89,0.00,,,0.00,VWS V14.01,2013-03-28 04:20:00,
2013-03-27 23:25:00,16.4,13.7,30.16,ESE,117,0.0,0.0,89,0.00,,,0.00,VWS V14.01,2013-03-28 04:25:00,
2013-03-27 23:30:00,15.9,13.2,30.17,ESE,117,0.0,0.0,89,0.00,,,0.00,VWS V14.01,2013-03-28 04:30:00,
2013-03-27 23:35:00,15.7,13.2,30.17,ESE,117,0.0,0.0,90,0.00,,,0.00,VWS V14.01,2013-03-28 04:35:00,
2013-03-27 23:40:00,15.7,13.2,30.17,ESE,117,0.0,0.0,90,0.00,,,0.00,VWS V14.01,2013-03-28 04:40:00,
2013-03-27 23:45:00,15.4,12.9,30.17,ESE,117,0.0,0.0,90,0.00,,,0.00,VWS V14.01,2013-03-28 04:45:00,
2013-03-27 23:50:00,15.0,12.5,30.17,ESE,117,0.0,0.0,90,0.00,,,0.00,VWS V14.01,2013-03-28 04:50:00,
2013-03-27 23:55:00,15.0,12.5,30.16,ESE,117,0.0,0.0,90,0.00,,,0.00,VWS V14.01,2013-03-28 04:55:00,